createdAt,value
2023-02-28T00:01:26.524Z,95926.06
2023-02-28T00:04:28.858Z,95931.69
2023-02-28T00:07:36.222Z,95933.78
2023-02-28T00:10:38.161Z,95931.78
2023-02-28T00:13:42.674Z,95930.59
2023-02-28T00:16:44.507Z,95938.47
2023-02-28T00:19:46.456Z,95940.25
2023-02-28T00:22:52.252Z,95935.56
2023-02-28T00:25:54.883Z,95932.97
2023-02-28T00:28:56.767Z,95914.06
2023-02-28T00:31:59.644Z,95918.41
2023-02-28T00:35:02.494Z,95923.56
2023-02-28T00:38:08.662Z,95927.84
2023-02-28T00:41:10.718Z,95932.00
2023-02-28T00:44:12.597Z,95920.34
2023-02-28T00:47:16.610Z,95915.56
2023-02-28T00:50:18.781Z,95909.72
2023-02-28T00:53:22.036Z,95913.84
2023-02-28T00:56:27.314Z,95909.91
2023-02-28T00:59:30.085Z,95904.78
2023-02-28T01:02:32.751Z,95904.81
2023-02-28T01:05:34.569Z,95899.41
2023-02-28T01:08:38.998Z,95900.03
2023-02-28T01:11:42.039Z,95894.44
2023-02-28T01:14:44.523Z,95900.41
2023-02-28T01:17:46.295Z,95892.91
2023-02-28T01:20:48.353Z,95890.63
2023-02-28T01:23:53.178Z,95905.47
2023-02-28T01:26:55.681Z,95882.22
2023-02-28T01:29:57.505Z,95890.97
2023-02-28T01:32:59.343Z,95883.03
2023-02-28T01:36:05.114Z,95882.53
2023-02-28T01:39:10.935Z,95885.38
2023-02-28T01:42:13.821Z,95896.13
2023-02-28T01:45:24.624Z,95882.97
2023-02-28T01:48:30.978Z,95892.44
2023-02-28T01:51:40.602Z,95884.75
2023-02-28T01:54:51.687Z,95892.06
2023-02-28T01:57:56.263Z,95868.53
2023-02-28T02:00:58.297Z,95883.28
2023-02-28T02:04:02.973Z,95882.31
2023-02-28T02:07:05.599Z,95880.91
2023-02-28T02:10:14.202Z,95875.97
2023-02-28T02:13:53.022Z,95876.94
2023-02-28T02:17:06.452Z,95882.31
2023-02-28T02:20:48.011Z,95883.09
2023-02-28T02:24:22.716Z,95875.97
2023-02-28T02:27:42.881Z,95875.81
2023-02-28T02:31:10.999Z,95884.66
2023-02-28T02:34:44.316Z,95869.22
2023-02-28T02:37:53.642Z,95879.81
2023-02-28T02:41:00.230Z,95878.41
2023-02-28T02:44:08.416Z,95873.72
2023-02-28T02:47:16.951Z,95862.94
2023-02-28T02:50:25.563Z,95870.97
2023-02-28T02:53:31.657Z,95877.91
2023-02-28T02:56:37.130Z,95876.16
2023-02-28T02:59:41.789Z,95873.88
2023-02-28T03:02:47.381Z,95880.69
2023-02-28T03:05:52.125Z,95873.66
2023-02-28T03:08:55.161Z,95876.38
2023-02-28T03:12:00.782Z,95871.22
2023-02-28T03:15:14.816Z,95873.16
2023-02-28T03:18:23.328Z,95873.56
2023-02-28T03:21:31.935Z,95861.41
2023-02-28T03:24:44.967Z,95877.97
2023-02-28T03:27:57.171Z,95865.03
2023-02-28T03:31:05.532Z,95872.97
2023-02-28T03:34:10.946Z,95873.25
2023-02-28T03:37:23.335Z,95870.81
2023-02-28T03:40:31.103Z,95860.75
2023-02-28T03:43:36.860Z,95874.16
2023-02-28T03:46:46.911Z,95865.72
2023-02-28T03:49:55.014Z,95864.09
2023-02-28T03:53:04.406Z,95860.69
2023-02-28T03:56:14.268Z,95867.81
2023-02-28T03:59:21.412Z,95873.16
2023-02-28T04:02:24.928Z,95870.53
2023-02-28T04:05:29.671Z,95868.88
2023-02-28T04:08:36.728Z,95857.31
2023-02-28T04:11:40.628Z,95858.94
2023-02-28T04:14:42.473Z,95872.69
2023-02-28T04:17:44.918Z,95862.88
2023-02-28T04:20:46.668Z,95871.25
2023-02-28T04:23:50.893Z,95861.88
2023-02-28T04:26:55.592Z,95879.41
2023-02-28T04:29:57.351Z,95875.19
2023-02-28T04:33:02.044Z,95876.41
2023-02-28T04:36:08.588Z,95871.31
2023-02-28T04:39:11.809Z,95878.25
2023-02-28T04:42:16.389Z,95872.25
2023-02-28T04:45:18.172Z,95879.59
2023-02-28T04:48:22.309Z,95867.03
2023-02-28T04:51:24.198Z,95868.03
2023-02-28T04:54:28.034Z,95871.53
2023-02-28T04:57:29.978Z,95879.53
2023-02-28T05:00:33.139Z,95880.63
2023-02-28T05:03:34.974Z,95864.66
2023-02-28T05:06:37.043Z,95865.81
2023-02-28T05:09:40.810Z,95883.41
2023-02-28T05:12:43.892Z,95873.19
2023-02-28T05:15:45.673Z,95871.63
2023-02-28T05:18:48.246Z,95879.97
2023-02-28T05:21:52.576Z,95875.25
2023-02-28T05:24:59.269Z,95875.53
2023-02-28T05:28:01.067Z,95867.44
2023-02-28T05:31:05.558Z,95884.75
2023-02-28T05:34:07.504Z,95875.16
2023-02-28T05:37:14.159Z,95886.13
2023-02-28T05:40:17.955Z,95891.63
2023-02-28T05:43:21.498Z,95889.13
2023-02-28T05:46:23.676Z,95894.78
2023-02-28T05:49:25.648Z,95891.69
2023-02-28T05:52:29.692Z,95890.41
2023-02-28T05:55:32.894Z,95895.63
2023-02-28T05:58:34.999Z,95903.84
2023-02-28T06:01:39.003Z,95898.50
2023-02-28T06:04:42.929Z,95908.44
2023-02-28T06:07:45.505Z,95907.41
2023-02-28T06:10:50.928Z,95913.00
2023-02-28T06:13:54.602Z,95916.41
2023-02-28T06:16:59.120Z,95915.34
2023-02-28T06:20:01.040Z,95926.50
2023-02-28T06:23:06.146Z,95933.94
2023-02-28T06:26:09.269Z,95937.03
2023-02-28T06:29:11.283Z,95929.66
2023-02-28T06:32:13.246Z,95927.88
2023-02-28T06:35:16.437Z,95936.47
2023-02-28T06:38:18.914Z,95933.59
2023-02-28T06:41:22.696Z,95931.09
2023-02-28T06:44:26.054Z,95942.47
2023-02-28T06:47:30.663Z,95942.31
2023-02-28T06:50:32.640Z,95939.09
2023-02-28T06:53:34.986Z,95943.22
2023-02-28T06:56:39.436Z,95949.00
2023-02-28T06:59:41.251Z,95953.44
2023-02-28T07:02:43.210Z,95957.66
2023-02-28T07:05:45.948Z,95964.13
2023-02-28T07:08:47.738Z,95958.06
2023-02-28T07:11:51.196Z,95953.41
2023-02-28T07:14:53.215Z,95962.41
2023-02-28T07:17:55.231Z,95963.38
2023-02-28T07:20:57.186Z,95958.91
2023-02-28T07:23:59.485Z,95956.75
2023-02-28T07:27:03.960Z,95957.13
2023-02-28T07:30:06.996Z,95958.44
2023-02-28T07:33:12.073Z,95963.25
2023-02-28T07:36:15.844Z,95965.28
2023-02-28T07:39:17.725Z,95962.56
2023-02-28T07:42:23.435Z,95968.06
2023-02-28T07:45:25.498Z,95969.66
2023-02-28T07:48:28.481Z,95970.88
2023-02-28T07:51:31.233Z,95969.81
2023-02-28T07:54:34.075Z,95977.25
2023-02-28T07:57:37.512Z,95969.44
2023-02-28T08:00:39.392Z,95972.88
2023-02-28T08:03:42.271Z,95970.28
2023-02-28T08:06:44.547Z,95971.72
2023-02-28T08:09:46.627Z,95966.50
2023-02-28T08:12:50.056Z,95969.44
2023-02-28T08:15:52.338Z,95963.88
2023-02-28T08:18:54.800Z,95975.66
2023-02-28T08:21:56.985Z,95975.94
2023-02-28T08:24:58.765Z,95976.34
2023-02-28T08:28:02.987Z,95986.34
2023-02-28T08:31:09.193Z,95981.25
2023-02-28T08:34:13.433Z,95984.75
2023-02-28T08:37:15.551Z,95999.03
2023-02-28T08:40:18.180Z,95997.94
2023-02-28T08:43:21.294Z,95996.88
2023-02-28T08:46:25.433Z,95996.59
2023-02-28T08:49:27.530Z,95998.50
2023-02-28T08:52:31.265Z,95999.28
2023-02-28T08:55:33.122Z,96005.09
2023-02-28T08:58:39.772Z,96002.44
2023-02-28T09:01:42.333Z,96011.28
2023-02-28T09:04:44.103Z,96016.13
2023-02-28T09:07:47.418Z,96013.50
2023-02-28T09:10:50.913Z,96018.09
2023-02-28T09:13:54.082Z,96017.03
2023-02-28T09:16:56.156Z,96013.78
2023-02-28T09:19:59.411Z,96023.72
2023-02-28T09:23:02.330Z,96024.03
2023-02-28T09:26:04.940Z,96027.44
2023-02-28T09:29:10.365Z,96024.28
2023-02-28T09:32:12.183Z,96027.03
2023-02-28T09:35:14.071Z,96033.81
2023-02-28T09:38:16.103Z,96038.56
2023-02-28T09:41:20.742Z,96037.38
2023-02-28T09:44:30.163Z,96047.97
2023-02-28T09:47:36.495Z,96049.84
2023-02-28T09:50:41.429Z,96047.09
2023-02-28T09:53:45.776Z,96051.50
2023-02-28T09:56:52.433Z,96057.09
2023-02-28T10:00:07.780Z,96053.25
2023-02-28T10:03:26.492Z,96062.78
2023-02-28T10:06:34.701Z,96055.97
2023-02-28T10:09:38.480Z,96066.47
2023-02-28T10:12:45.362Z,96060.84
2023-02-28T10:15:52.525Z,96074.03
2023-02-28T10:19:02.402Z,96065.66
2023-02-28T10:22:12.414Z,96068.00
2023-02-28T10:25:19.613Z,96061.63
2023-02-28T10:28:22.041Z,96061.81
2023-02-28T10:31:30.026Z,96060.56
2023-02-28T10:34:31.911Z,96070.28
2023-02-28T10:37:34.010Z,96070.56
2023-02-28T10:40:36.437Z,96062.72
2023-02-28T10:43:39.934Z,96059.84
2023-02-28T10:46:44.153Z,96059.81
2023-02-28T10:49:50.027Z,96060.47
2023-02-28T10:52:52.042Z,96057.75
2023-02-28T10:56:03.848Z,96060.13
2023-02-28T10:59:28.923Z,96052.97
2023-02-28T11:02:36.974Z,96050.06
2023-02-28T11:05:38.947Z,96050.34
2023-02-28T11:08:47.711Z,96058.31
2023-02-28T11:11:50.174Z,96045.81
2023-02-28T11:14:56.107Z,96050.38
2023-02-28T11:18:02.145Z,96060.91
2023-02-28T11:21:05.119Z,96060.00
2023-02-28T11:24:23.529Z,96049.00
2023-02-28T11:27:27.982Z,96047.50
2023-02-28T11:30:36.143Z,96049.09
2023-02-28T11:33:45.843Z,96036.50
2023-02-28T11:36:57.221Z,96042.94
2023-02-28T11:39:58.997Z,96032.31
2023-02-28T11:43:13.124Z,96038.88
2023-02-28T11:46:27.055Z,96034.03
2023-02-28T11:49:41.094Z,96040.16
2023-02-28T11:52:50.078Z,96036.25
2023-02-28T11:55:57.931Z,96025.75
2023-02-28T11:59:24.070Z,96025.00
2023-02-28T12:02:29.656Z,96023.88
2023-02-28T12:05:43.125Z,96023.88
2023-02-28T12:08:57.237Z,96025.44
2023-02-28T12:12:08.353Z,96029.53
2023-02-28T12:15:51.402Z,96027.63
2023-02-28T12:19:16.004Z,96019.13
2023-02-28T12:22:28.905Z,96017.41
2023-02-28T12:25:48.410Z,96008.75
2023-02-28T12:28:59.959Z,96016.44
2023-02-28T12:32:07.483Z,96026.00
2023-02-28T12:35:15.774Z,96015.13
2023-02-28T12:38:26.760Z,96015.13
2023-02-28T12:41:36.172Z,96006.38
2023-02-28T12:44:45.474Z,96008.84
2023-02-28T12:47:52.182Z,96008.59
2023-02-28T12:50:55.301Z,96012.22
2023-02-28T12:54:10.497Z,96006.66
2023-02-28T12:57:19.939Z,96005.47
2023-02-28T13:00:26.398Z,95996.91
2023-02-28T13:03:45.955Z,95996.13
2023-02-28T13:07:07.173Z,96003.63
2023-02-28T13:10:11.769Z,96000.72
2023-02-28T13:13:19.466Z,96002.78
2023-02-28T13:16:23.880Z,95994.00
2023-02-28T13:19:27.799Z,95997.72
2023-02-28T13:22:41.082Z,95992.13
2023-02-28T13:25:58.465Z,95991.88
2023-02-28T13:29:02.473Z,95998.06
2023-02-28T13:32:33.131Z,96004.78
2023-02-28T13:35:45.393Z,95998.59
2023-02-28T13:38:50.858Z,95999.84
2023-02-28T13:41:56.653Z,96003.63
2023-02-28T13:45:22.970Z,95996.47
2023-02-28T13:48:30.937Z,95995.66
2023-02-28T13:51:43.207Z,96008.00
2023-02-28T13:55:02.807Z,95995.41
2023-02-28T13:58:30.803Z,96002.44
2023-02-28T14:01:52.815Z,96004.88
2023-02-28T14:05:11.985Z,95999.31
2023-02-28T14:08:18.547Z,96006.91
2023-02-28T14:11:42.600Z,96011.06
2023-02-28T14:14:58.030Z,96015.63
2023-02-28T14:18:02.175Z,96008.06
2023-02-28T14:21:13.841Z,96000.03
2023-02-28T14:24:49.795Z,96007.75
2023-02-28T14:28:02.076Z,96007.16
2023-02-28T14:31:10.086Z,96007.00
2023-02-28T14:34:27.147Z,96006.00
2023-02-28T14:37:36.786Z,95992.53
2023-02-28T14:40:40.352Z,96000.28
2023-02-28T14:43:50.498Z,96006.34
2023-02-28T14:46:56.096Z,96008.38
2023-02-28T14:49:59.060Z,96009.63
2023-02-28T14:53:03.566Z,96009.91
2023-02-28T14:56:06.857Z,96014.72
2023-02-28T14:59:33.069Z,96015.19
2023-02-28T15:02:37.721Z,96016.03
2023-02-28T15:05:39.759Z,96019.31
2023-02-28T15:08:41.970Z,96016.91
2023-02-28T15:11:48.372Z,96006.50
2023-02-28T15:14:52.205Z,96009.28
2023-02-28T15:17:59.922Z,96012.34
2023-02-28T15:21:07.831Z,96006.19
2023-02-28T15:24:15.532Z,96014.13
2023-02-28T15:27:22.796Z,96019.47
2023-02-28T15:30:28.339Z,96021.16
2023-02-28T15:33:33.559Z,96021.63
2023-02-28T15:36:38.823Z,96021.69
2023-02-28T15:39:45.189Z,96017.13
2023-02-28T15:43:00.922Z,96015.09
2023-02-28T15:46:04.420Z,96015.91
2023-02-28T15:49:20.216Z,96014.84
2023-02-28T15:52:27.276Z,96022.53
2023-02-28T15:55:29.581Z,96015.59
2023-02-28T15:58:32.802Z,96022.72
2023-02-28T16:01:36.060Z,96011.19
2023-02-28T16:04:59.152Z,96009.66
2023-02-28T16:08:03.130Z,96010.69
2023-02-28T16:11:05.413Z,96012.63
2023-02-28T16:14:15.425Z,96018.22
2023-02-28T16:17:22.464Z,96011.19
2023-02-28T16:20:27.538Z,96016.66
2023-02-28T16:23:30.899Z,96020.91
2023-02-28T16:26:33.554Z,96027.03
2023-02-28T16:29:37.957Z,96018.75
2023-02-28T16:32:43.056Z,96018.50
2023-02-28T16:35:46.187Z,96023.00
2023-02-28T16:38:49.558Z,96027.34
2023-02-28T16:41:52.742Z,96026.88
2023-02-28T16:44:58.992Z,96025.44
2023-02-28T16:48:00.936Z,96021.34
2023-02-28T16:51:04.702Z,96034.25
2023-02-28T16:54:07.963Z,96040.13
2023-02-28T16:57:19.427Z,96031.13
2023-02-28T17:00:22.080Z,96030.66
2023-02-28T17:03:33.041Z,96030.19
2023-02-28T17:06:39.022Z,96033.19
2023-02-28T17:09:44.508Z,96034.66
2023-02-28T17:12:48.328Z,96042.69
2023-02-28T17:15:54.148Z,96049.59
2023-02-28T17:18:59.493Z,96037.69
2023-02-28T17:22:03.954Z,96047.34
2023-02-28T17:25:09.106Z,96046.38
2023-02-28T17:28:12.625Z,96047.38
2023-02-28T17:31:17.201Z,96051.31
2023-02-28T17:34:19.697Z,96055.59
2023-02-28T17:37:29.417Z,96043.81
2023-02-28T17:40:32.994Z,96059.16
2023-02-28T17:43:42.208Z,96059.38
2023-02-28T17:46:44.828Z,96050.59
2023-02-28T17:49:47.228Z,96056.28
2023-02-28T17:52:55.880Z,96057.03
2023-02-28T17:55:58.438Z,96062.41
2023-02-28T17:59:00.606Z,96060.56
2023-02-28T18:02:05.111Z,96061.97
2023-02-28T18:05:09.962Z,96066.22
2023-02-28T18:08:18.649Z,96070.16
2023-02-28T18:11:23.135Z,96059.63
2023-02-28T18:14:26.690Z,96062.78
2023-02-28T18:17:34.502Z,96062.16
2023-02-28T18:20:37.385Z,96066.38
2023-02-28T18:23:44.900Z,96063.88
2023-02-28T18:26:49.554Z,96073.09
2023-02-28T18:29:53.582Z,96069.34
2023-02-28T18:32:56.335Z,96068.25
2023-02-28T18:35:59.329Z,96077.00
2023-02-28T18:39:03.595Z,96073.84
2023-02-28T18:42:08.250Z,96074.19
2023-02-28T18:45:12.003Z,96083.91
2023-02-28T18:48:14.604Z,96080.78
2023-02-28T18:51:23.099Z,96077.47
2023-02-28T18:54:30.066Z,96077.94
2023-02-28T18:57:32.968Z,96080.00
2023-02-28T19:00:37.429Z,96082.00
2023-02-28T19:03:40.000Z,96079.38
2023-02-28T19:06:49.623Z,96082.81
2023-02-28T19:09:55.055Z,96079.28
2023-02-28T19:12:58.559Z,96078.25
2023-02-28T19:16:08.044Z,96081.72
2023-02-28T19:19:11.203Z,96071.53
2023-02-28T19:22:13.790Z,96081.06
2023-02-28T19:25:19.937Z,96083.41
2023-02-28T19:28:22.592Z,96072.75
2023-02-28T19:31:27.407Z,96073.84
2023-02-28T19:34:30.190Z,96078.84
2023-02-28T19:37:39.717Z,96073.59
2023-02-28T19:40:44.151Z,96081.91
2023-02-28T19:43:47.482Z,96074.84
2023-02-28T19:46:51.397Z,96074.19
2023-02-28T19:49:57.098Z,96088.25
2023-02-28T19:53:00.712Z,96074.84
2023-02-28T19:56:06.475Z,96072.22
2023-02-28T19:59:21.024Z,96070.72
2023-02-28T20:02:24.937Z,96065.75
2023-02-28T20:05:28.218Z,96068.97
2023-02-28T20:08:33.588Z,96063.75
2023-02-28T20:11:38.781Z,96060.66
2023-02-28T20:14:41.889Z,96069.78
2023-02-28T20:17:45.610Z,96068.22
2023-02-28T20:20:48.741Z,96065.56
2023-02-28T20:23:53.508Z,96066.84
2023-02-28T20:26:57.541Z,96071.03
2023-02-28T20:30:00.485Z,96066.66
2023-02-28T20:33:06.219Z,96072.34
2023-02-28T20:36:08.803Z,96076.38
2023-02-28T20:39:13.142Z,96076.19
2023-02-28T20:42:17.461Z,96074.91
2023-02-28T20:45:23.506Z,96067.72
2023-02-28T20:48:26.513Z,96065.31
2023-02-28T20:51:31.405Z,96073.00
2023-02-28T20:54:36.254Z,96070.63
2023-02-28T20:57:40.664Z,96072.97
2023-02-28T21:00:43.533Z,96080.72
2023-02-28T21:03:47.680Z,96078.28
2023-02-28T21:06:49.867Z,96077.22
2023-02-28T21:09:55.461Z,96078.31
2023-02-28T21:13:00.038Z,96070.59
2023-02-28T21:16:05.082Z,96073.72
2023-02-28T21:19:07.432Z,96073.91
2023-02-28T21:22:09.389Z,96072.66
2023-02-28T21:25:12.411Z,96063.63
2023-02-28T21:28:15.945Z,96056.59
2023-02-28T21:31:20.389Z,96059.84
2023-02-28T21:34:22.774Z,96054.81
2023-02-28T21:37:24.651Z,96064.34
2023-02-28T21:40:26.701Z,96063.41
2023-02-28T21:43:29.834Z,96053.25
2023-02-28T21:46:33.486Z,96059.00
2023-02-28T21:49:36.145Z,96055.91
2023-02-28T21:52:38.171Z,96059.47
2023-02-28T21:55:41.280Z,96066.84
2023-02-28T21:58:47.729Z,96060.56
2023-02-28T22:01:50.995Z,96061.94
2023-02-28T22:04:52.881Z,96071.47
2023-02-28T22:07:55.954Z,96056.34
2023-02-28T22:11:02.330Z,96063.91
2023-02-28T22:14:06.796Z,96059.25
2023-02-28T22:17:10.013Z,96065.44
2023-02-28T22:20:12.285Z,96065.84
2023-02-28T22:23:14.072Z,96063.06
2023-02-28T22:26:20.723Z,96053.22
2023-02-28T22:29:23.981Z,96059.34
2023-02-28T22:32:26.122Z,96069.13
2023-02-28T22:35:28.206Z,96069.06
2023-02-28T22:38:29.969Z,96062.66
2023-02-28T22:41:32.367Z,96063.22
2023-02-28T22:44:37.681Z,96074.66
2023-02-28T22:47:39.990Z,96069.63
2023-02-28T22:50:41.968Z,96062.28
2023-02-28T22:53:49.448Z,96073.44
2023-02-28T22:56:51.257Z,96067.53
2023-02-28T22:59:54.734Z,96066.06
2023-02-28T23:02:57.411Z,96065.16
2023-02-28T23:05:59.692Z,96057.13
2023-02-28T23:09:04.398Z,96053.31
2023-02-28T23:12:06.747Z,96051.44
2023-02-28T23:15:13.434Z,96063.53
2023-02-28T23:18:15.775Z,96065.16
2023-02-28T23:21:17.511Z,96060.66
2023-02-28T23:24:22.990Z,96057.31
2023-02-28T23:27:24.768Z,96055.25
2023-02-28T23:30:28.747Z,96054.97
2023-02-28T23:33:31.136Z,96046.19
2023-02-28T23:36:34.148Z,96047.00
2023-02-28T23:39:36.365Z,96043.72
2023-02-28T23:42:38.338Z,96035.84
2023-02-28T23:45:55.402Z,96040.94
2023-02-28T23:48:58.623Z,96038.16
2023-02-28T23:52:00.651Z,96031.56
2023-02-28T23:55:02.551Z,96027.94
2023-02-28T23:58:06.433Z,96028.41
